Time;durP1;ratioP1;P1;durP2;ratioP2;P2;SDS_P1;SDS_P2;PMS_P1;PMS_P2;Temp;Humidity;BMP_temperature;BMP_pressure;BME280_temperature;BME280_humidity;BME280_pressure;Samples;Min_cycle;Max_cycle;Signal;HPM_P1;HPM_P2
2023/07/24 00:00:05;;;;;;;;;;;;;;;26.43;52.52;100105.88;5414063;32;35039;-87
2023/07/24 00:03:07;;;;;;;;;;;;;;;25.89;54.58;100107.28;5408652;32;34590;-87
2023/07/24 00:06:09;;;;;;;;;;;;;;;26.38;53.40;100110.88;5409774;32;35022;-87
2023/07/24 00:09:11;;;;;;;;;;;;;;;26.59;52.69;100106.84;5395561;32;34204;-87
2023/07/24 00:12:13;;;;;;;;;;;;;;;26.71;52.32;100102.78;5394827;32;36918;-87
2023/07/24 00:15:17;;;;;;;;;;;;;;;27.23;50.65;100102.34;5395638;32;37563;-88
2023/07/24 00:18:19;;;;;;;;;;;;;;;26.51;52.92;100098.78;5409694;32;35042;-87
2023/07/24 00:21:21;;;;;;;;;;;;;;;26.13;54.07;100091.16;5391979;32;34993;-88
2023/07/24 00:24:23;;;;;;;;;;;;;;;26.17;54.21;100089.84;5394846;32;35656;-87
2023/07/24 00:27:25;;;;;;;;;;;;;;;26.59;52.69;100091.53;5396310;32;34769;-87
2023/07/24 00:30:27;;;;;;;;;;;;;;;26.01;54.44;100094.34;5408270;32;34973;-87
2023/07/24 00:33:29;;;;;;;;;;;;;;;26.02;54.86;100096.91;5407934;32;34456;-88
2023/07/24 00:36:31;;;;;;;;;;;;;;;26.76;52.52;100086.12;5393379;32;34605;-87
2023/07/24 00:39:33;;;;;;;;;;;;;;;26.83;51.97;100082.56;5393738;32;34232;-87
2023/07/24 00:42:35;;;;;;;;;;;;;;;26.53;52.60;100086.81;5410252;32;37093;-87
2023/07/24 00:45:37;;;;;;;;;;;;;;;26.28;53.42;100079.75;5403321;32;34730;-87
2023/07/24 00:48:39;;;;;;;;;;;;;;;26.89;51.63;100073.78;5407601;32;34799;-86
2023/07/24 00:51:41;;;;;;;;;;;;;;;26.74;52.00;100064.72;5392300;32;34898;-87
2023/07/24 00:54:43;;;;;;;;;;;;;;;26.02;54.22;100067.28;5408858;32;34426;-86
2023/07/24 00:57:45;;;;;;;;;;;;;;;25.75;55.08;100064.88;5397287;32;34626;-88
2023/07/24 01:00:47;;;;;;;;;;;;;;;25.71;55.42;100061.66;5393381;32;35149;-86
2023/07/24 01:03:49;;;;;;;;;;;;;;;26.08;54.47;100063.91;5412353;32;34903;-86
2023/07/24 01:06:51;;;;;;;;;;;;;;;25.45;56.51;100055.53;5391837;32;36713;-88
2023/07/24 01:09:53;;;;;;;;;;;;;;;26.50;53.07;100054.00;5414734;32;34358;-87
2023/07/24 01:13:00;;;;;;;;;;;;;;;26.58;52.49;100054.81;5405123;32;35079;-87
2023/07/24 01:16:14;;;;;;;;;;;;;;;26.31;53.61;100053.28;5393317;32;34774;-87
2023/07/24 01:19:31;;;;;;;;;;;;;;;26.00;54.59;100053.13;5396728;32;34734;-86
2023/07/24 01:22:48;;;;;;;;;;;;;;;26.13;54.26;100056.16;5408084;32;34960;-86
2023/07/24 01:25:57;;;;;;;;;;;;;;;26.18;54.04;100056.50;5393777;32;34169;-86
2023/07/24 01:28:59;;;;;;;;;;;;;;;26.32;53.42;100056.84;5389895;32;34565;-86
2023/07/24 01:32:01;;;;;;;;;;;;;;;26.01;54.36;100056.66;5403219;32;34227;-86
2023/07/24 01:35:04;;;;;;;;;;;;;;;25.92;54.79;100061.22;5396116;32;34777;-86
2023/07/24 01:38:06;;;;;;;;;;;;;;;25.72;55.50;100051.72;5406082;32;38267;-87
2023/07/24 01:41:08;;;;;;;;;;;;;;;25.40;56.54;100050.63;5405742;32;34626;-87
2023/07/24 01:44:10;;;;;;;;;;;;;;;25.52;56.30;100054.72;5394287;32;35101;-87
2023/07/24 01:47:12;;;;;;;;;;;;;;;24.63;59.30;100041.69;5397697;32;34271;-86
2023/07/24 01:50:14;;;;;;;;;;;;;;;25.26;57.34;100048.59;5391380;32;35050;-87
2023/07/24 01:53:16;;;;;;;;;;;;;;;24.57;60.04;100047.69;5407993;32;35935;-86
2023/07/24 01:56:18;;;;;;;;;;;;;;;24.13;61.78;100047.66;5393975;32;34235;-87
2023/07/24 01:59:20;;;;;;;;;;;;;;;24.40;61.25;100051.25;5409676;32;34253;-87
2023/07/24 02:02:22;;;;;;;;;;;;;;;24.63;60.40;100048.91;5411543;32;36067;-87
2023/07/24 02:05:24;;;;;;;;;;;;;;;24.49;60.62;100047.66;5406483;32;34918;-87
2023/07/24 02:08:26;;;;;;;;;;;;;;;24.22;62.08;100057.50;5397716;32;35246;-87
2023/07/24 02:11:27;;;;;;;;;;;;;;;24.57;61.00;100042.31;5391246;32;34621;-87
2023/07/24 02:14:30;;;;;;;;;;;;;;;25.31;58.21;100047.09;5393168;32;34637;-88
2023/07/24 02:17:32;;;;;;;;;;;;;;;24.82;60.07;100036.09;5412214;32;35520;-86
2023/07/24 02:20:33;;;;;;;;;;;;;;;24.52;61.15;100047.31;5392153;32;35020;-87
2023/07/24 02:23:35;;;;;;;;;;;;;;;24.39;61.71;100049.56;5396186;32;34857;-86
2023/07/24 02:26:37;;;;;;;;;;;;;;;24.73;60.17;100046.94;5390644;32;34300;-87
2023/07/24 02:29:39;;;;;;;;;;;;;;;24.61;61.12;100053.59;5395708;32;36006;-86
2023/07/24 02:32:41;;;;;;;;;;;;;;;25.46;58.00;100049.16;5405483;32;35113;-87
2023/07/24 02:35:43;;;;;;;;;;;;;;;25.31;58.30;100049.78;5405313;32;35402;-87
2023/07/24 02:38:45;;;;;;;;;;;;;;;24.47;61.41;100052.31;5412319;32;35137;-86
2023/07/24 02:41:48;;;;;;;;;;;;;;;25.34;58.40;100051.28;5390761;32;34306;-86
2023/07/24 02:44:50;;;;;;;;;;;;;;;25.19;58.80;100045.69;5411369;32;34741;-87
2023/07/24 02:47:52;;;;;;;;;;;;;;;24.58;60.61;100049.38;5392932;32;35466;-86
2023/07/24 02:50:54;;;;;;;;;;;;;;;24.84;60.23;100044.81;5394855;32;35339;-85
2023/07/24 02:53:56;;;;;;;;;;;;;;;25.10;59.34;100047.50;5390991;32;35040;-87
2023/07/24 02:56:58;;;;;;;;;;;;;;;24.67;60.70;100051.13;5405518;32;33810;-87
2023/07/24 03:00:00;;;;;;;;;;;;;;;25.47;58.08;100050.81;5398950;32;36384;-86
2023/07/24 03:03:02;;;;;;;;;;;;;;;25.41;57.91;100048.78;5405742;32;35071;-86
2023/07/24 03:06:04;;;;;;;;;;;;;;;25.16;58.80;100039.78;5408497;32;35103;-87
2023/07/24 03:09:06;;;;;;;;;;;;;;;25.01;59.29;100043.06;5393708;32;34765;-87
2023/07/24 03:12:08;;;;;;;;;;;;;;;24.88;59.91;100041.84;5410641;32;35016;-87
2023/07/24 03:15:10;;;;;;;;;;;;;;;24.02;63.21;100050.59;5390491;32;34171;-87
2023/07/24 03:18:12;;;;;;;;;;;;;;;24.37;62.35;100054.28;5392320;32;35775;-88
2023/07/24 03:21:14;;;;;;;;;;;;;;;24.66;61.23;100046.72;5398353;32;34678;-87
2023/07/24 03:24:16;;;;;;;;;;;;;;;24.12;63.31;100053.19;5411220;32;37063;-87
2023/07/24 03:27:18;;;;;;;;;;;;;;;24.27;62.24;100044.41;5405911;32;36015;-87
2023/07/24 03:30:20;;;;;;;;;;;;;;;23.77;65.11;100039.66;5406855;32;36703;-86
2023/07/24 03:33:22;;;;;;;;;;;;;;;23.66;65.35;100039.88;5409241;32;34724;-86
2023/07/24 03:36:24;;;;;;;;;;;;;;;24.59;61.45;100032.25;5408803;32;35055;-87
2023/07/24 03:39:26;;;;;;;;;;;;;;;24.01;63.94;100038.16;5408298;32;34742;-88
2023/07/24 03:42:29;;;;;;;;;;;;;;;23.81;64.54;100034.81;5410420;32;35517;-86
2023/07/24 03:45:31;;;;;;;;;;;;;;;24.94;60.29;100025.91;5392569;32;34767;-86
2023/07/24 03:48:34;;;;;;;;;;;;;;;24.51;61.59;100032.22;5412490;32;34267;-87
2023/07/24 03:51:36;;;;;;;;;;;;;;;24.03;63.20;100037.03;5408558;32;35465;-86
2023/07/24 03:54:38;;;;;;;;;;;;;;;23.92;64.96;100039.09;5393830;32;37188;-87
2023/07/24 03:57:40;;;;;;;;;;;;;;;23.84;64.68;100037.19;5393902;32;35473;-86
2023/07/24 04:00:42;;;;;;;;;;;;;;;23.92;64.18;100031.06;5392275;32;35064;-85
2023/07/24 04:03:44;;;;;;;;;;;;;;;24.28;63.12;100030.03;5413081;32;36668;-86
2023/07/24 04:06:47;;;;;;;;;;;;;;;24.10;63.13;100039.94;5390358;32;34959;-86
2023/07/24 04:09:49;;;;;;;;;;;;;;;24.03;64.40;100033.50;5396983;32;36466;-85
2023/07/24 04:12:51;;;;;;;;;;;;;;;24.15;63.54;100032.28;5408103;32;35313;-87
2023/07/24 04:15:52;;;;;;;;;;;;;;;23.67;65.84;100041.56;5395439;32;35205;-86
2023/07/24 04:18:55;;;;;;;;;;;;;;;23.55;66.75;100029.31;5409062;32;34780;-87
2023/07/24 04:21:57;;;;;;;;;;;;;;;25.02;60.50;100025.09;5390778;32;36268;-87
2023/07/24 04:24:59;;;;;;;;;;;;;;;25.07;59.80;100030.87;5396944;32;34320;-86
2023/07/24 04:28:00;;;;;;;;;;;;;;;24.42;62.72;100025.94;5390931;32;34955;-87
2023/07/24 04:31:02;;;;;;;;;;;;;;;25.14;59.92;100029.22;5406674;32;34789;-86
2023/07/24 04:34:04;;;;;;;;;;;;;;;25.22;59.34;100021.16;5392834;32;35008;-87
2023/07/24 04:37:06;;;;;;;;;;;;;;;25.31;59.01;100024.69;5412853;32;35488;-87
2023/07/24 04:40:08;;;;;;;;;;;;;;;25.26;59.13;100027.06;5394580;32;34784;-86
2023/07/24 04:43:10;;;;;;;;;;;;;;;25.22;59.50;100015.78;5408817;32;34330;-87
2023/07/24 04:46:12;;;;;;;;;;;;;;;25.35;58.88;100015.31;5396368;32;35109;-87
2023/07/24 04:49:15;;;;;;;;;;;;;;;24.98;60.70;100021.03;5403978;32;33765;-87
2023/07/24 04:52:17;;;;;;;;;;;;;;;24.80;60.64;100018.44;5398040;32;34374;-86
2023/07/24 04:55:19;;;;;;;;;;;;;;;25.43;58.57;100019.87;5392629;32;34663;-87
2023/07/24 04:58:21;;;;;;;;;;;;;;;25.40;58.64;100026.44;5398432;32;34901;-86
2023/07/24 05:01:23;;;;;;;;;;;;;;;25.22;59.38;100034.59;5395128;32;34697;-86
2023/07/24 05:04:25;;;;;;;;;;;;;;;25.63;59.28;100035.56;5409340;32;36776;-86
2023/07/24 05:07:27;;;;;;;;;;;;;;;27.02;54.12;100038.19;5391907;32;35462;-87
2023/07/24 05:10:29;;;;;;;;;;;;;;;26.74;54.62;100035.06;5390095;32;34870;-88
2023/07/24 05:13:31;;;;;;;;;;;;;;;27.02;54.29;100026.53;5412170;32;34886;-86
2023/07/24 05:16:33;;;;;;;;;;;;;;;27.72;52.16;100027.41;5392588;32;34784;-86
2023/07/24 05:19:35;;;;;;;;;;;;;;;28.54;48.90;100024.88;5391688;32;34265;-87
2023/07/24 05:22:37;;;;;;;;;;;;;;;28.39;49.77;100036.66;5406041;32;34363;-86
2023/07/24 05:25:40;;;;;;;;;;;;;;;28.91;48.14;100036.59;5402827;32;34215;-87
2023/07/24 05:28:42;;;;;;;;;;;;;;;28.93;48.35;100026.50;5393727;32;33899;-87
2023/07/24 05:31:44;;;;;;;;;;;;;;;29.13;47.80;100024.88;5391024;32;35600;-87
2023/07/24 05:34:47;;;;;;;;;;;;;;;28.97;48.29;100026.94;5391754;32;35016;-87
2023/07/24 05:37:48;;;;;;;;;;;;;;;28.37;49.03;100036.84;5400547;32;34160;-88
2023/07/24 05:40:54;;;;;;;;;;;;;;;29.41;46.38;100021.47;5406669;32;35447;-87
2023/07/24 05:43:56;;;;;;;;;;;;;;;30.18;44.50;100018.94;5405324;32;35534;-88
2023/07/24 05:46:58;;;;;;;;;;;;;;;31.20;41.98;100023.78;5405276;32;35005;-87
2023/07/24 05:50:00;;;;;;;;;;;;;;;31.33;42.69;100019.47;5414943;32;35022;-87
2023/07/24 05:53:02;;;;;;;;;;;;;;;31.96;39.89;100022.78;5408289;32;36105;-87
2023/07/24 05:56:04;;;;;;;;;;;;;;;30.87;43.86;100018.19;5340232;32;36242;-88
2023/07/24 05:59:06;;;;;;;;;;;;;;;31.67;41.49;100013.91;5316269;32;36040;-87
2023/07/24 06:02:09;;;;;;;;;;;;;;;31.47;42.35;100013.03;5315577;32;34986;-87
2023/07/24 06:05:12;;;;;;;;;;;;;;;30.78;44.27;100013.13;5333354;32;34936;-85
2023/07/24 06:08:15;;;;;;;;;;;;;;;32.45;39.49;100011.47;5312492;32;35020;-85
2023/07/24 06:11:17;;;;;;;;;;;;;;;32.38;40.23;100005.22;5356123;32;35217;-86
2023/07/24 06:14:19;;;;;;;;;;;;;;;31.82;41.83;100000.19;5373761;32;35340;-84
2023/07/24 06:17:21;;;;;;;;;;;;;;;31.05;43.63;100001.38;5352319;32;35346;-87
2023/07/24 06:20:27;;;;;;;;;;;;;;;31.66;42.69;99995.94;5363470;32;34391;-88
2023/07/24 06:23:29;;;;;;;;;;;;;;;32.07;41.48;99997.66;5337000;32;35885;-87
2023/07/24 06:26:31;;;;;;;;;;;;;;;30.11;46.50;100003.66;5374860;32;35510;-85
2023/07/24 06:29:33;;;;;;;;;;;;;;;30.88;45.16;100002.75;5348400;32;34285;-84
2023/07/24 06:32:36;;;;;;;;;;;;;;;33.37;38.59;99998.66;5363683;32;34598;-84
2023/07/24 06:35:38;;;;;;;;;;;;;;;33.87;37.86;99993.31;5352620;32;34809;-92
2023/07/24 06:38:42;;;;;;;;;;;;;;;34.37;36.58;99994.16;5371751;32;34243;-89
2023/07/24 06:41:44;;;;;;;;;;;;;;;33.99;37.60;99996.19;5357525;32;34685;-88
2023/07/24 06:44:46;;;;;;;;;;;;;;;31.61;42.92;99998.44;5351672;32;35564;-87
2023/07/24 06:47:48;;;;;;;;;;;;;;;31.52;43.17;99999.69;5367975;32;35111;-86
2023/07/24 06:50:50;;;;;;;;;;;;;;;33.04;40.19;100002.38;5385625;32;35487;-87
2023/07/24 06:53:52;;;;;;;;;;;;;;;32.18;41.56;100007.06;5382991;32;34974;-89
2023/07/24 06:56:55;;;;;;;;;;;;;;;34.42;37.19;99988.91;5382113;32;34969;-87
2023/07/24 06:59:57;;;;;;;;;;;;;;;33.31;39.81;99994.06;5365080;32;34244;-87
2023/07/24 07:02:59;;;;;;;;;;;;;;;34.66;36.75;99997.25;5360131;32;34864;-88
2023/07/24 07:06:02;;;;;;;;;;;;;;;33.75;38.51;99987.75;5378055;32;36440;-86
2023/07/24 07:09:05;;;;;;;;;;;;;;;34.09;38.26;99991.06;5392739;32;36602;-89
2023/07/24 07:12:07;;;;;;;;;;;;;;;34.53;36.83;99989.22;5396290;32;34293;-91
2023/07/24 07:15:13;;;;;;;;;;;;;;;32.48;41.54;99977.59;5390925;32;34435;-88
2023/07/24 07:18:14;;;;;;;;;;;;;;;33.99;38.50;99980.66;5414249;32;36440;-87
2023/07/24 07:21:19;;;;;;;;;;;;;;;33.72;38.88;99969.09;5422281;32;35649;-88
2023/07/24 07:24:24;;;;;;;;;;;;;;;34.37;38.00;99966.88;5411316;32;36243;-89
2023/07/24 07:27:26;;;;;;;;;;;;;;;36.47;33.93;99957.03;5395280;32;34449;-90
2023/07/24 07:30:28;;;;;;;;;;;;;;;35.39;36.21;99958.13;5393116;32;34643;-86
2023/07/24 07:33:30;;;;;;;;;;;;;;;35.84;35.64;99952.22;5401295;32;34528;-87
2023/07/24 07:36:32;;;;;;;;;;;;;;;36.37;33.90;99954.03;5396157;32;34552;-87
2023/07/24 07:39:34;;;;;;;;;;;;;;;35.25;36.05;99947.41;5387614;32;35945;-89
2023/07/24 07:42:38;;;;;;;;;;;;;;;33.27;40.46;99943.81;5400117;32;35026;-88
2023/07/24 07:45:46;;;;;;;;;;;;;;;33.43;39.97;99937.88;5411945;32;34182;-89
2023/07/24 07:48:49;;;;;;;;;;;;;;;34.87;36.72;99942.19;5394550;32;35390;-89
2023/07/24 07:51:51;;;;;;;;;;;;;;;35.24;35.52;99936.72;5387238;32;35808;-87
2023/07/24 07:54:53;;;;;;;;;;;;;;;34.85;36.51;99929.84;5397795;32;34595;-89
2023/07/24 07:57:55;;;;;;;;;;;;;;;33.61;38.82;99931.66;5389349;32;34838;-89
2023/07/24 08:00:57;;;;;;;;;;;;;;;36.10;33.08;99929.91;5397395;32;34805;-87
2023/07/24 08:03:59;;;;;;;;;;;;;;;36.54;32.74;99939.41;5399646;32;34164;-89
2023/07/24 08:07:01;;;;;;;;;;;;;;;36.83;32.59;99937.53;5389648;32;35497;-89
2023/07/24 08:10:03;;;;;;;;;;;;;;;37.00;32.69;99929.41;5407409;32;34308;-88
2023/07/24 08:13:07;;;;;;;;;;;;;;;38.21;30.56;99932.63;5392445;32;35133;-86
2023/07/24 08:16:18;;;;;;;;;;;;;;;37.47;31.60;99931.94;5407445;32;35620;-89
2023/07/24 08:19:20;;;;;;;;;;;;;;;36.23;33.45;99934.28;5387565;32;37011;-87
2023/07/24 08:22:22;;;;;;;;;;;;;;;36.11;33.38;99923.34;5392060;32;34879;-90
2023/07/24 08:25:24;;;;;;;;;;;;;;;36.66;32.56;99919.41;5396386;32;34058;-87
2023/07/24 08:28:26;;;;;;;;;;;;;;;35.75;34.08;99930.69;5393885;32;33883;-86
2023/07/24 08:31:29;;;;;;;;;;;;;;;37.20;30.77;99919.94;5391166;32;33671;-88
2023/07/24 08:34:31;;;;;;;;;;;;;;;35.25;34.25;99928.28;5391486;32;35393;-87
2023/07/24 08:37:34;;;;;;;;;;;;;;;34.04;36.96;99920.84;5381538;32;33852;-91
2023/07/24 08:40:36;;;;;;;;;;;;;;;35.54;34.31;99920.28;5384303;32;35391;-87
2023/07/24 08:43:39;;;;;;;;;;;;;;;36.37;32.04;99919.28;5388693;32;33562;-89
2023/07/24 08:46:45;;;;;;;;;;;;;;;36.16;32.41;99922.66;5392472;32;33125;-89
2023/07/24 08:49:47;;;;;;;;;;;;;;;34.79;34.89;99919.84;5397187;32;34456;-90
2023/07/24 08:52:49;;;;;;;;;;;;;;;35.96;33.09;99912.91;5382419;32;36949;-88
2023/07/24 08:55:52;;;;;;;;;;;;;;;37.19;30.59;99901.84;5404353;32;35274;-87
2023/07/24 08:58:55;;;;;;;;;;;;;;;36.45;31.88;99899.78;5389679;32;35355;-88
2023/07/24 09:01:57;;;;;;;;;;;;;;;37.56;29.89;99894.84;5401186;32;34381;-88
2023/07/24 09:04:59;;;;;;;;;;;;;;;38.06;28.58;99895.91;5394511;32;34272;-90
2023/07/24 09:08:03;;;;;;;;;;;;;;;38.07;28.25;99895.69;5399176;32;36833;-87
2023/07/24 09:11:06;;;;;;;;;;;;;;;38.38;27.35;99887.88;5396533;32;35251;-86
2023/07/24 09:14:09;;;;;;;;;;;;;;;40.08;24.93;99884.69;5385809;32;34635;-88
2023/07/24 09:17:21;;;;;;;;;;;;;;;38.73;26.82;99874.62;5398310;32;35134;-89
2023/07/24 09:20:23;;;;;;;;;;;;;;;39.90;24.45;99876.81;5388753;32;34524;-89
2023/07/24 09:23:29;;;;;;;;;;;;;;;38.80;25.18;99868.94;5390961;32;35163;-87
2023/07/24 09:26:33;;;;;;;;;;;;;;;37.82;26.33;99871.44;5389912;32;35440;-86
2023/07/24 09:29:35;;;;;;;;;;;;;;;37.11;27.83;99871.03;5390385;32;35339;-88
2023/07/24 09:32:38;;;;;;;;;;;;;;;36.34;27.91;99870.53;5390327;32;35128;-87
2023/07/24 09:35:40;;;;;;;;;;;;;;;36.95;27.62;99869.06;5387684;32;34670;-86
2023/07/24 09:38:43;;;;;;;;;;;;;;;38.14;25.98;99855.16;5373125;32;34321;-88
2023/07/24 09:41:48;;;;;;;;;;;;;;;39.13;25.25;99859.66;5392175;32;34894;-88
2023/07/24 09:44:50;;;;;;;;;;;;;;;38.18;25.99;99855.47;5380979;32;35921;-87
2023/07/24 09:47:56;;;;;;;;;;;;;;;38.00;26.67;99850.28;5386779;32;34191;-86
2023/07/24 09:51:04;;;;;;;;;;;;;;;38.77;25.46;99835.66;5373065;32;34495;-86
2023/07/24 09:54:09;;;;;;;;;;;;;;;38.53;26.18;99827.69;5382552;32;34287;-86
2023/07/24 09:57:11;;;;;;;;;;;;;;;40.04;23.33;99821.06;5381859;32;33935;-90
2023/07/24 10:00:23;;;;;;;;;;;;;;;38.61;25.04;99829.12;5385258;32;34857;-87
2023/07/24 10:03:26;;;;;;;;;;;;;;;41.03;21.95;99818.41;5380147;32;34406;-90
2023/07/24 10:06:30;;;;;;;;;;;;;;;38.97;23.93;99820.22;5382832;32;34184;-87
2023/07/24 10:09:33;;;;;;;;;;;;;;;39.28;23.25;99810.34;5389891;32;35136;-86
2023/07/24 10:12:36;;;;;;;;;;;;;;;40.39;21.57;99802.25;5383457;32;34052;-87
2023/07/24 10:15:38;;;;;;;;;;;;;;;40.57;21.73;99797.06;5368964;32;34828;-87
2023/07/24 10:18:45;;;;;;;;;;;;;;;41.23;19.85;99790.84;5390014;32;33227;-84
2023/07/24 10:21:47;;;;;;;;;;;;;;;40.01;20.87;99804.25;5390983;32;35213;-86
2023/07/24 10:24:49;;;;;;;;;;;;;;;39.71;21.78;99789.22;5386859;32;34883;-86
2023/07/24 10:27:52;;;;;;;;;;;;;;;38.58;22.27;99792.06;5384507;32;34586;-84
2023/07/24 10:30:55;;;;;;;;;;;;;;;38.12;22.50;99794.22;5383051;32;35076;-86
2023/07/24 10:34:04;;;;;;;;;;;;;;;38.44;22.65;99779.81;5370623;32;35698;-86
2023/07/24 10:37:07;;;;;;;;;;;;;;;38.34;23.30;99776.97;5385109;32;34602;-85
2023/07/24 10:40:21;;;;;;;;;;;;;;;39.60;21.73;99778.44;5373142;32;34462;-87
2023/07/24 10:43:24;;;;;;;;;;;;;;;39.33;22.82;99768.34;5393503;32;34485;-86
2023/07/24 10:46:35;;;;;;;;;;;;;;;40.64;21.07;99763.75;5401728;32;36885;-86
2023/07/24 10:49:37;;;;;;;;;;;;;;;40.69;20.97;99758.25;5382599;32;33620;-86
2023/07/24 10:52:40;;;;;;;;;;;;;;;39.94;20.81;99765.16;5380971;32;37660;-85
2023/07/24 10:55:47;;;;;;;;;;;;;;;38.60;21.92;99756.94;5391078;32;38272;-89
2023/07/24 10:58:49;;;;;;;;;;;;;;;38.60;22.49;99758.84;5384284;32;34419;-86
2023/07/24 11:01:51;;;;;;;;;;;;;;;39.26;21.58;99749.31;5374959;32;34765;-85
2023/07/24 11:04:55;;;;;;;;;;;;;;;40.04;20.69;99737.69;5378772;32;35470;-86
2023/07/24 11:08:01;;;;;;;;;;;;;;;40.67;19.47;99730.19;5392236;32;35350;-87
2023/07/24 11:11:07;;;;;;;;;;;;;;;41.04;19.08;99718.09;5381438;32;35812;-86
2023/07/24 11:14:13;;;;;;;;;;;;;;;40.96;19.45;99722.22;5387780;32;35489;-87
2023/07/24 11:17:15;;;;;;;;;;;;;;;41.24;18.99;99712.56;5390284;32;34484;-87
2023/07/24 11:20:17;;;;;;;;;;;;;;;40.82;19.62;99707.31;5375747;32;35846;-87
2023/07/24 11:23:20;;;;;;;;;;;;;;;41.17;19.39;99703.75;5388092;32;35240;-86
2023/07/24 11:26:26;;;;;;;;;;;;;;;39.72;21.50;99700.12;5352430;32;34415;-87
2023/07/24 11:29:30;;;;;;;;;;;;;;;38.37;23.29;99705.06;5315354;32;35603;-88
2023/07/24 11:32:41;;;;;;;;;;;;;;;38.69;22.97;99697.69;5292615;32;35578;-88
2023/07/24 11:35:43;;;;;;;;;;;;;;;41.62;19.72;99677.19;5306839;32;35144;-89
2023/07/24 11:38:45;;;;;;;;;;;;;;;40.24;20.56;99676.38;5310029;32;34831;-87
2023/07/24 11:41:48;;;;;;;;;;;;;;;40.07;21.24;99668.38;5327529;32;35059;-87
2023/07/24 11:44:50;;;;;;;;;;;;;;;41.22;19.84;99645.88;5270177;32;32974;-91
2023/07/24 11:47:53;;;;;;;;;;;;;;;39.83;21.24;99647.91;5278963;32;34781;-87
2023/07/24 11:50:56;;;;;;;;;;;;;;;38.57;23.00;99657.78;5286228;32;35852;-87
2023/07/24 11:54:08;;;;;;;;;;;;;;;40.48;20.98;99638.19;5309673;32;35022;-86
2023/07/24 11:57:15;;;;;;;;;;;;;;;41.19;19.95;99624.34;5314116;32;35808;-89
2023/07/24 12:00:19;;;;;;;;;;;;;;;42.77;17.46;99626.28;5312251;32;36522;-92
2023/07/24 12:03:25;;;;;;;;;;;;;;;42.32;17.67;99624.72;5326184;32;36353;-90
2023/07/24 12:06:30;;;;;;;;;;;;;;;42.08;17.65;99614.34;5292765;32;35387;-87
2023/07/24 12:09:32;;;;;;;;;;;;;;;43.63;16.44;99613.44;5283418;32;34580;-88
2023/07/24 12:12:46;;;;;;;;;;;;;;;43.33;16.76;99611.84;5281150;32;35442;-88
2023/07/24 12:15:48;;;;;;;;;;;;;;;42.47;17.71;99611.59;5340597;32;35754;-90
2023/07/24 12:18:50;;;;;;;;;;;;;;;42.11;18.58;99602.72;5343478;32;34978;-86
2023/07/24 12:21:53;;;;;;;;;;;;;;;42.35;18.41;99602.84;5345165;32;36855;-87
2023/07/24 12:24:55;;;;;;;;;;;;;;;41.32;19.40;99578.88;5351559;32;34307;-85
2023/07/24 12:27:58;;;;;;;;;;;;;;;39.73;21.28;99590.94;5360959;32;34432;-87
2023/07/24 12:31:02;;;;;;;;;;;;;;;39.64;21.54;99582.41;5352489;32;35005;-88
2023/07/24 12:34:14;;;;;;;;;;;;;;;38.17;23.02;99593.16;5348481;32;35514;-87
2023/07/24 12:37:17;;;;;;;;;;;;;;;37.12;24.62;99584.22;5348600;32;34295;-87
2023/07/24 12:40:19;;;;;;;;;;;;;;;36.39;25.81;99585.25;5342890;32;37567;-88
2023/07/24 12:43:21;;;;;;;;;;;;;;;36.25;25.63;99579.25;5353874;32;35794;-87
2023/07/24 12:46:23;;;;;;;;;;;;;;;36.13;25.79;99559.34;5345724;32;34882;-89
2023/07/24 12:49:25;;;;;;;;;;;;;;;36.45;25.30;99552.25;5354921;32;35553;-87
2023/07/24 12:52:28;;;;;;;;;;;;;;;35.92;26.16;99558.97;5346439;32;34430;-87
2023/07/24 12:55:33;;;;;;;;;;;;;;;36.72;25.09;99557.06;5367452;32;34714;-89
2023/07/24 12:58:35;;;;;;;;;;;;;;;36.05;26.39;99564.16;5358722;32;38851;-87
2023/07/24 13:01:38;;;;;;;;;;;;;;;35.84;27.18;99537.50;5352207;32;35404;-86
2023/07/24 13:04:40;;;;;;;;;;;;;;;36.13;27.23;99532.00;5359023;32;35406;-89
2023/07/24 13:07:45;;;;;;;;;;;;;;;35.51;28.43;99535.50;5360490;32;34720;-88
2023/07/24 13:10:49;;;;;;;;;;;;;;;35.58;28.23;99536.19;5357587;32;34462;-86
2023/07/24 13:13:52;;;;;;;;;;;;;;;35.59;27.48;99539.75;5366368;32;37427;-88
2023/07/24 13:16:54;;;;;;;;;;;;;;;35.25;27.64;99531.41;5343338;32;35118;-86
2023/07/24 13:19:57;;;;;;;;;;;;;;;35.47;27.86;99517.91;5360222;32;36725;-86
2023/07/24 13:22:59;;;;;;;;;;;;;;;35.03;28.52;99520.28;5362688;32;34815;-87
2023/07/24 13:26:02;;;;;;;;;;;;;;;34.97;29.12;99524.81;5362487;32;34744;-87
2023/07/24 13:29:05;;;;;;;;;;;;;;;35.25;28.27;99521.28;5361144;32;35388;-85
2023/07/24 13:32:07;;;;;;;;;;;;;;;34.81;29.40;99514.59;5354891;32;34913;-87
2023/07/24 13:35:10;;;;;;;;;;;;;;;34.94;29.89;99497.97;5354498;32;36439;-91
2023/07/24 13:38:13;;;;;;;;;;;;;;;35.64;28.87;99496.13;5361372;32;35174;-87
2023/07/24 13:41:15;;;;;;;;;;;;;;;35.18;29.86;99487.00;5350820;32;35105;-87
2023/07/24 13:44:17;;;;;;;;;;;;;;;35.73;28.31;99480.97;5352172;32;35768;-88
2023/07/24 13:47:23;;;;;;;;;;;;;;;35.93;27.66;99480.53;5345838;32;35738;-86
2023/07/24 13:50:25;;;;;;;;;;;;;;;35.03;29.58;99481.22;5359356;32;35599;-87
2023/07/24 13:53:27;;;;;;;;;;;;;;;34.98;28.34;99476.50;5362151;32;34703;-87
2023/07/24 13:56:33;;;;;;;;;;;;;;;35.26;27.73;99467.50;5351490;32;35198;-85
2023/07/24 13:59:38;;;;;;;;;;;;;;;35.62;27.17;99465.44;5366332;32;35405;-87
2023/07/24 14:02:40;;;;;;;;;;;;;;;35.39;27.98;99475.41;5364610;32;34749;-87
2023/07/24 14:05:42;;;;;;;;;;;;;;;34.46;29.45;99463.62;5375956;32;33828;-88
2023/07/24 14:08:44;;;;;;;;;;;;;;;35.03;28.94;99456.66;5350764;32;34485;-88
2023/07/24 14:11:46;;;;;;;;;;;;;;;34.97;28.79;99450.25;5351352;32;35682;-87
2023/07/24 14:14:49;;;;;;;;;;;;;;;35.02;28.20;99433.97;5366795;32;33827;-87
2023/07/24 14:17:51;;;;;;;;;;;;;;;35.11;27.70;99428.97;5338265;32;36043;-90
2023/07/24 14:20:56;;;;;;;;;;;;;;;34.78;27.79;99414.09;5362455;32;34463;-86
2023/07/24 14:23:58;;;;;;;;;;;;;;;35.39;27.25;99400.81;5361011;32;35084;-85
2023/07/24 14:27:00;;;;;;;;;;;;;;;35.30;27.41;99397.66;5367641;32;36018;-88
2023/07/24 14:30:03;;;;;;;;;;;;;;;34.99;27.92;99391.63;5358176;32;35277;-88
2023/07/24 14:33:05;;;;;;;;;;;;;;;34.63;28.28;99383.75;5364519;32;34616;-89
2023/07/24 14:36:08;;;;;;;;;;;;;;;34.83;28.20;99388.78;5369138;32;36645;-90
2023/07/24 14:39:10;;;;;;;;;;;;;;;35.34;27.56;99385.16;5363186;32;34612;-89
2023/07/24 14:42:15;;;;;;;;;;;;;;;35.31;27.51;99377.47;5356485;32;35101;-89
2023/07/24 14:45:17;;;;;;;;;;;;;;;34.98;27.78;99380.94;5353820;32;33205;-88
2023/07/24 14:48:20;;;;;;;;;;;;;;;35.23;27.06;99372.38;5366936;32;34634;-88
2023/07/24 14:51:23;;;;;;;;;;;;;;;34.99;27.58;99358.84;5366716;32;36335;-88
2023/07/24 14:54:27;;;;;;;;;;;;;;;35.82;26.28;99348.28;5370686;32;36052;-86
2023/07/24 14:57:29;;;;;;;;;;;;;;;35.97;26.09;99337.63;5374990;32;34772;-90
2023/07/24 15:00:32;;;;;;;;;;;;;;;35.36;25.89;99330.28;5384933;32;37968;-89
2023/07/24 15:03:37;;;;;;;;;;;;;;;35.10;25.94;99329.00;5380097;32;35182;-89
2023/07/24 15:06:40;;;;;;;;;;;;;;;34.75;26.32;99313.59;5385950;32;35126;-90
2023/07/24 15:09:43;;;;;;;;;;;;;;;34.56;26.90;99328.47;5383797;32;35175;-89
2023/07/24 15:12:45;;;;;;;;;;;;;;;34.49;27.36;99325.91;5380723;32;34963;-90
2023/07/24 15:15:49;;;;;;;;;;;;;;;34.99;26.60;99333.47;5376849;32;36368;-89
2023/07/24 15:18:51;;;;;;;;;;;;;;;34.89;26.75;99331.31;5365888;32;35511;-86
2023/07/24 15:21:53;;;;;;;;;;;;;;;34.23;27.81;99329.94;5357108;32;35704;-87
2023/07/24 15:24:55;;;;;;;;;;;;;;;34.29;27.76;99320.81;5354514;32;37185;-87
2023/07/24 15:27:58;;;;;;;;;;;;;;;34.49;27.39;99312.25;5352118;32;33862;-87
2023/07/24 15:31:00;;;;;;;;;;;;;;;34.43;27.59;99316.78;5345567;32;34291;-87
2023/07/24 15:34:03;;;;;;;;;;;;;;;34.73;27.33;99319.28;5358854;32;35620;-88
2023/07/24 15:37:05;;;;;;;;;;;;;;;34.94;27.00;99312.34;5357514;32;34258;-88
2023/07/24 15:40:08;;;;;;;;;;;;;;;35.42;25.98;99302.81;5354078;32;34397;-85
2023/07/24 15:43:12;;;;;;;;;;;;;;;35.22;25.69;99307.91;5355348;32;34349;-87
2023/07/24 15:46:14;;;;;;;;;;;;;;;35.01;25.74;99304.00;5388844;32;34582;-86